Time;durP1;ratioP1;P1;durP2;ratioP2;P2;SDS_P1;SDS_P2;PMS_P1;PMS_P2;Temp;Humidity;BMP_temperature;BMP_pressure;BME280_temperature;BME280_humidity;BME280_pressure;Samples;Min_cycle;Max_cycle;Signal;HPM_P1;HPM_P2
2022/07/17 00:01:15;;;;;;;7.72;2.30;;;;;;;;;;5016959;28;20053;-82
2022/07/17 00:03:41;;;;;;;5.85;2.30;;;;;;;;;;5034968;28;20057;-81
2022/07/17 00:06:07;;;;;;;6.13;2.20;;;;;;;;;;5000993;28;20111;-81
2022/07/17 00:08:33;;;;;;;8.48;2.40;;;;;;;;;;5016920;28;20226;-82
2022/07/17 00:10:59;;;;;;;4.43;2.08;;;;;;;;;;5000782;28;20053;-81
2022/07/17 00:13:26;;;;;;;7.95;2.60;;;;;;;;;;5016360;28;20600;-80
2022/07/17 00:15:52;;;;;;;6.90;2.35;;;;;;;;;;5017013;28;20165;-83
2022/07/17 00:18:18;;;;;;;4.68;2.10;;;;;;;;;;5034532;28;20115;-81
2022/07/17 00:20:44;;;;;;;6.55;2.10;;;;;;;;;;5016398;28;20049;-82
2022/07/17 00:23:10;;;;;;;7.57;2.60;;;;;;;;;;5034025;28;20059;-82
2022/07/17 00:25:36;;;;;;;5.75;2.53;;;;;;;;;;5016440;28;20135;-81
2022/07/17 00:28:03;;;;;;;4.43;2.40;;;11.40;99.90;;;;;;5000149;28;20422;-82
2022/07/17 00:30:29;;;;;;;6.32;2.25;;;;;;;;;;5016024;28;20053;-81
2022/07/17 00:32:55;;;;;;;5.10;2.30;;;;;;;;;;5016176;28;20136;-81
2022/07/17 00:35:22;;;;;;;4.75;2.50;;;;;;;;;;4999534;28;20057;-81
2022/07/17 00:37:49;;;;;;;7.90;2.30;;;11.30;99.90;;;;;;5016419;28;20458;-81
2022/07/17 00:40:20;;;;;;;8.48;2.30;;;11.30;99.90;;;;;;5015970;28;20053;-81
2022/07/17 00:42:46;;;;;;;7.85;2.40;;;;;;;;;;5015586;28;20053;-81
2022/07/17 00:45:13;;;;;;;7.22;2.50;;;11.20;99.90;;;;;;4999536;28;20054;-80
2022/07/17 00:48:00;;;;;;;7.03;2.40;;;11.30;99.90;;;;;;4999566;28;20058;-80
2022/07/17 00:50:40;;;;;;;6.50;2.45;;;11.10;99.90;;;;;;5015695;28;20052;-82
2022/07/17 00:53:07;;;;;;;6.95;2.75;;;11.10;99.90;;;;;;5033148;28;20412;-82
2022/07/17 00:55:33;;;;;;;7.13;2.50;;;;;;;;;;5015303;28;20056;-81
2022/07/17 00:58:02;;;;;;;8.35;2.38;;;11.00;99.90;;;;;;5033336;28;20077;-81
2022/07/17 01:00:30;;;;;;;9.23;2.72;;;11.10;99.90;;;;;;5239066;23;20025;-59
2022/07/17 01:02:57;;;;;;;6.53;2.40;;;11.10;99.90;;;;;;4992727;28;20061;-59
2022/07/17 01:05:27;;;;;;;8.40;2.40;;;11.10;99.90;;;;;;4978256;28;20437;-59
2022/07/17 01:07:52;;;;;;;7.60;2.45;;;11.10;99.90;;;;;;4995045;28;20077;-59
2022/07/17 01:10:19;;;;;;;8.43;2.70;;;11.00;99.90;;;;;;4977425;28;20100;-59
2022/07/17 01:12:46;;;;;;;6.75;2.50;;;11.00;99.90;;;;;;4994946;28;20042;-59
2022/07/17 01:15:15;;;;;;;6.45;2.40;;;11.00;99.90;;;;;;4995012;28;20121;-59
2022/07/17 01:17:41;;;;;;;5.22;2.40;;;11.00;99.90;;;;;;4994458;28;20479;-59
2022/07/17 01:20:09;;;;;;;6.50;2.60;;;10.70;99.90;;;;;;4994945;28;20056;-59
2022/07/17 01:22:43;;;;;;;5.88;2.40;;;10.30;99.90;;;;;;4994798;28;20046;-59
2022/07/17 01:25:09;;;;;;;8.48;2.47;;;11.00;99.90;;;;;;4994843;28;20050;-59
2022/07/17 01:27:36;;;;;;;5.38;2.65;;;10.70;99.90;;;;;;4994411;28;20050;-59
2022/07/17 01:30:02;;;;;;;12.75;2.70;;;10.70;99.90;;;;;;4994749;28;20370;-59
2022/07/17 01:32:35;;;;;;;4.45;2.40;;;10.70;99.90;;;;;;4994719;28;20174;-59
2022/07/17 01:35:04;;;;;;;7.07;2.78;;;10.70;99.90;;;;;;4994299;28;20042;-59
2022/07/17 01:37:30;;;;;;;4.72;2.80;;;10.80;99.90;;;;;;4977157;28;20049;-59
2022/07/17 01:39:56;;;;;;;8.32;2.67;;;10.60;99.90;;;;;;4977142;28;20058;-59
2022/07/17 01:42:25;;;;;;;5.00;2.63;;;10.50;99.90;;;;;;4994231;28;20398;-59
2022/07/17 01:44:51;;;;;;;5.28;2.80;;;10.70;99.90;;;;;;4994501;28;20160;-59
2022/07/17 01:47:17;;;;;;;5.50;2.80;;;10.50;99.90;;;;;;4994022;28;20053;-59
2022/07/17 01:49:50;;;;;;;9.10;3.30;;;10.60;99.90;;;;;;4976986;28;20066;-59
2022/07/17 01:52:15;;;;;;;11.43;5.20;;;11.70;99.90;;;;;;4976908;28;20066;-59
2022/07/17 01:54:42;;;;;;;8.10;4.40;;;10.50;99.90;;;;;;4993868;28;20039;-59
2022/07/17 01:57:09;;;;;;;10.27;3.95;;;10.70;99.90;;;;;;4994341;28;20157;-59
2022/07/17 01:59:35;;;;;;;10.32;3.72;;;;;;;;;;4993954;28;20057;-59
2022/07/17 02:02:02;;;;;;;8.48;3.42;;;10.60;99.90;;;;;;4993937;28;20057;-59
2022/07/17 02:04:28;;;;;;;10.68;3.25;;;10.50;99.90;;;;;;4994040;28;20043;-59
2022/07/17 02:06:54;;;;;;;6.15;3.00;;;10.00;99.90;;;;;;4976383;28;20097;-59
2022/07/17 02:09:21;;;;;;;8.57;3.50;;;10.70;99.90;;;;;;4993977;28;20401;-59
2022/07/17 02:11:48;;;;;;;5.30;3.20;;;9.70;99.90;;;;;;4993900;28;20051;-59
2022/07/17 02:14:13;;;;;;;11.48;3.90;;;10.60;99.90;;;;;;4993617;28;20545;-59
2022/07/17 02:16:43;;;;;;;11.85;3.50;;;10.40;99.90;;;;;;4993907;28;20516;-59
2022/07/17 02:19:08;;;;;;;6.20;3.13;;;10.30;99.90;;;;;;4993746;28;20054;-59
2022/07/17 02:21:34;;;;;;;9.02;3.58;;;10.40;99.90;;;;;;4993775;28;20106;-60
2022/07/17 02:24:00;;;;;;;7.85;3.33;;;11.20;99.90;;;;;;4976425;28;20046;-60
2022/07/17 02:26:26;;;;;;;8.88;3.70;;;11.30;99.90;;;;;;4993352;28;20117;-59
2022/07/17 02:28:52;;;;;;;7.75;4.00;;;;;;;;;;4993720;28;20085;-59
2022/07/17 02:31:18;;;;;;;7.10;3.78;;;10.40;99.90;;;;;;4993705;28;20371;-59
2022/07/17 02:33:43;;;;;;;8.10;4.30;;;10.20;99.90;;;;;;4993836;28;20065;-59
2022/07/17 02:36:09;;;;;;;6.78;3.40;;;10.10;99.90;;;;;;4993809;28;20055;-59
2022/07/17 02:38:35;;;;;;;6.15;3.72;;;10.40;99.90;;;;;;4993689;28;20432;-59
2022/07/17 02:41:00;;;;;;;7.85;3.60;;;10.20;99.90;;;;;;4975826;28;20057;-59
2022/07/17 02:43:26;;;;;;;8.70;4.18;;;9.50;99.90;;;;;;4993534;28;20048;-59
2022/07/17 02:45:52;;;;;;;6.88;3.95;;;;;;;;;;4993007;28;20082;-59
2022/07/17 02:48:18;;;;;;;9.32;4.00;;;10.40;99.90;;;;;;4993355;28;20092;-59
2022/07/17 02:50:44;;;;;;;10.27;3.78;;;10.20;99.90;;;;;;4993274;28;20046;-59
2022/07/17 02:53:10;;;;;;;11.68;3.85;;;10.20;99.90;;;;;;4993047;28;20053;-59
2022/07/17 02:55:36;;;;;;;9.45;3.80;;;;;;;;;;4975750;28;20050;-59
2022/07/17 02:58:02;;;;;;;9.07;3.90;;;10.40;99.90;;;;;;4993367;28;20073;-59
2022/07/17 03:00:29;;;;;;;6.50;3.53;;;10.40;99.90;;;;;;4993451;28;20046;-59
2022/07/17 03:02:57;;;;;;;7.20;3.53;;;10.00;99.90;;;;;;4992952;28;20442;-58
2022/07/17 03:05:24;;;;;;;8.80;3.60;;;;;;;;;;4978165;28;20404;-59
2022/07/17 03:07:49;;;;;;;9.48;3.78;;;10.00;99.90;;;;;;4996428;28;20050;-59
2022/07/17 03:10:15;;;;;;;12.98;3.90;;;10.00;99.90;;;;;;4996519;28;20042;-59
2022/07/17 03:12:41;;;;;;;7.68;3.88;;;10.20;99.90;;;;;;4996132;28;20078;-59
2022/07/17 03:15:10;;;;;;;6.30;3.50;;;10.10;99.90;;;;;;4996698;28;20100;-59
2022/07/17 03:17:38;;;;;;;8.80;3.85;;;9.60;99.90;;;;;;4996614;28;20485;-59
2022/07/17 03:20:04;;;;;;;5.53;3.33;;;10.00;99.90;;;;;;4978832;28;20069;-59
2022/07/17 03:22:30;;;;;;;8.80;3.97;;;10.10;99.90;;;;;;4978800;28;20046;-59
2022/07/17 03:24:56;;;;;;;6.80;4.13;;;9.80;99.90;;;;;;4996463;28;20050;-59
2022/07/17 03:27:21;;;;;;;10.40;4.05;;;10.00;99.90;;;;;;4996290;28;20506;-59
2022/07/17 03:29:47;;;;;;;7.25;3.63;;;10.10;99.90;;;;;;4996579;28;20049;-59
2022/07/17 03:32:13;;;;;;;7.28;3.58;;;9.60;99.90;;;;;;4996408;28;20044;-59
2022/07/17 03:34:39;;;;;;;7.57;3.83;;;9.80;99.90;;;;;;4996263;28;20050;-59
2022/07/17 03:37:06;;;;;;;8.27;3.65;;;10.10;99.90;;;;;;4996302;28;20042;-59
2022/07/17 03:39:33;;;;;;;10.18;4.00;;;;;;;;;;4995768;28;20133;-59
2022/07/17 03:41:59;;;;;;;10.77;4.07;;;;;;;;;;4995841;28;20093;-59
2022/07/17 03:44:25;;;;;;;9.35;4.25;;;;;;;;;;4995789;28;20055;-59
2022/07/17 03:46:51;;;;;;;9.93;3.60;;;9.70;99.90;;;;;;4995630;28;20050;-59
2022/07/17 03:49:16;;;;;;;7.55;3.63;;;9.80;99.90;;;;;;4996152;28;20051;-59
2022/07/17 03:51:42;;;;;;;6.65;3.58;;;11.00;99.90;;;;;;4995868;28;20402;-59
2022/07/17 03:54:08;;;;;;;6.35;3.47;;;9.90;99.90;;;;;;4995965;28;20117;-59
2022/07/17 03:56:33;;;;;;;8.05;3.60;;;9.70;99.90;;;;;;4996039;28;20049;-59
2022/07/17 03:59:00;;;;;;;5.25;3.42;;;;;;;;;;4995655;28;20409;-60
2022/07/17 04:01:25;;;;;;;6.55;3.72;;;9.90;99.90;;;;;;4995442;28;20058;-59
2022/07/17 04:03:51;;;;;;;9.70;3.50;;;9.80;99.90;;;;;;4995448;28;20049;-59
2022/07/17 04:06:17;;;;;;;5.45;3.53;;;;;;;;;;4995585;28;20505;-59
2022/07/17 04:08:43;;;;;;;5.75;3.75;;;10.10;99.90;;;;;;4995442;28;20174;-59
2022/07/17 04:11:09;;;;;;;6.55;3.70;;;9.80;99.90;;;;;;4995365;28;20067;-59
2022/07/17 04:13:35;;;;;;;6.18;3.80;;;10.00;99.90;;;;;;4978181;28;20046;-61
2022/07/17 04:16:04;;;;;;;6.15;3.60;;;;;;;;;;4994878;28;20053;-59
2022/07/17 04:18:33;;;;;;;7.43;3.75;;;9.90;99.90;;;;;;4995749;28;20057;-59
2022/07/17 04:21:01;;;;;;;9.98;4.28;;;9.80;99.90;;;;;;4978235;28;20061;-59
2022/07/17 04:23:29;;;;;;;9.80;4.28;;;9.90;99.90;;;;;;4995707;28;20152;-59
2022/07/17 04:25:57;;;;;;;6.50;3.70;;;10.10;99.90;;;;;;4995559;28;20089;-59
2022/07/17 04:28:24;;;;;;;8.38;3.85;;;;;;;;;;4995729;28;20129;-59
2022/07/17 04:30:50;;;;;;;8.10;3.92;;;;;;;;;;4995181;28;20053;-60
2022/07/17 04:33:17;;;;;;;10.02;4.10;;;10.30;99.90;;;;;;4995578;28;20061;-59
2022/07/17 04:35:43;;;;;;;8.60;3.83;;;10.40;99.90;;;;;;4995328;28;20113;-59
2022/07/17 04:38:10;;;;;;;8.60;4.05;;;10.50;99.90;;;;;;4995582;28;20047;-59
2022/07/17 04:40:38;;;;;;;8.10;4.55;;;10.20;99.90;;;;;;4995108;28;20085;-59
2022/07/17 04:43:04;;;;;;;6.60;3.60;;;10.80;99.90;;;;;;4977797;28;20146;-59
2022/07/17 04:45:31;;;;;;;8.25;3.97;;;10.40;99.90;;;;;;4995001;28;20046;-59
2022/07/17 04:47:58;;;;;;;11.38;4.53;;;10.50;99.90;;;;;;4995316;28;20053;-59
2022/07/17 04:50:24;;;;;;;7.07;4.50;;;10.60;99.90;;;;;;4995036;28;20113;-59
2022/07/17 04:52:50;;;;;;;6.75;4.18;;;9.90;99.90;;;;;;4977615;28;20450;-59
2022/07/17 04:55:16;;;;;;;11.98;4.50;;;10.80;99.90;;;;;;4994761;28;20126;-59
2022/07/17 04:57:42;;;;;;;7.57;4.20;;;;;;;;;;4994917;28;20045;-59
2022/07/17 05:00:11;;;;;;;10.65;4.88;;;10.90;99.90;;;;;;4994680;28;20046;-59
2022/07/17 05:02:37;;;;;;;11.70;4.60;;;;;;;;;;4976850;28;20057;-59
2022/07/17 05:05:03;;;;;;;9.18;5.00;;;;;;;;;;4994906;28;20038;-59
2022/07/17 05:07:29;;;;;;;7.47;4.38;;;11.60;99.90;;;;;;4994738;28;20039;-59
2022/07/17 05:09:55;;;;;;;7.72;4.80;;;11.50;99.90;;;;;;4994909;28;20378;-59
2022/07/17 05:12:21;;;;;;;8.38;4.60;;;;;;;;;;4994766;28;20046;-59
2022/07/17 05:14:47;;;;;;;7.97;4.40;;;;;;;;;;4994405;28;20042;-59
2022/07/17 05:17:13;;;;;;;7.97;3.97;;;12.10;99.90;;;;;;4994872;28;20042;-59
2022/07/17 05:19:39;;;;;;;7.88;4.55;;;;;;;;;;4994558;28;20178;-59
2022/07/17 05:22:05;;;;;;;7.45;4.20;;;13.70;99.90;;;;;;4994432;28;20061;-59
2022/07/17 05:24:33;;;;;;;7.88;4.03;;;13.60;99.90;;;;;;4976883;28;20050;-60
2022/07/17 05:27:00;;;;;;;9.20;4.13;;;13.70;99.90;;;;;;4994323;28;20438;-60
2022/07/17 05:29:26;;;;;;;7.68;4.28;;;13.90;99.90;;;;;;4993682;28;20385;-59
2022/07/17 05:31:55;;;;;;;7.35;4.07;;;14.60;99.90;;;;;;4977381;28;20478;-59
2022/07/17 05:34:21;;;;;;;6.57;3.90;;;15.20;99.90;;;;;;4977099;28;20125;-59
2022/07/17 05:36:47;;;;;;;7.68;3.97;;;15.80;99.90;;;;;;4994525;28;20410;-59
2022/07/17 05:39:13;;;;;;;8.52;3.95;;;;;;;;;;4994441;28;20109;-60
2022/07/17 05:41:39;;;;;;;8.85;3.88;;;15.80;99.90;;;;;;4976626;28;20049;-59
2022/07/17 05:44:08;;;;;;;7.50;3.90;;;;;;;;;;4994371;28;20402;-59
2022/07/17 05:46:34;;;;;;;8.00;3.78;;;15.30;99.90;;;;;;4993985;28;20056;-59
2022/07/17 05:48:59;;;;;;;5.85;3.55;;;14.50;99.90;;;;;;4994124;28;20052;-59
2022/07/17 05:51:29;;;;;;;5.60;3.63;;;14.90;99.90;;;;;;4994248;28;20361;-59
2022/07/17 05:53:54;;;;;;;8.20;3.70;;;14.30;99.90;;;;;;4994019;28;20073;-60
2022/07/17 05:56:23;;;;;;;6.53;3.38;;;14.80;99.90;;;;;;4976290;28;20097;-59
2022/07/17 05:58:49;;;;;;;8.30;3.55;;;;;;;;;;4994201;28;20057;-60
2022/07/17 06:01:16;;;;;;;9.63;3.42;;;14.60;99.90;;;;;;4993795;28;20050;-59
2022/07/17 06:03:41;;;;;;;7.65;3.78;;;14.80;99.90;;;;;;4993852;28;20137;-59
2022/07/17 06:06:07;;;;;;;6.22;3.78;;;14.70;99.90;;;;;;4976340;28;20133;-59
2022/07/17 06:08:33;;;;;;;8.18;3.70;;;;;;;;;;4993693;28;20049;-59
2022/07/17 06:10:59;;;;;;;8.57;3.30;;;14.60;99.90;;;;;;4992505;28;20042;-60
2022/07/17 06:13:25;;;;;;;9.75;3.70;;;14.60;99.90;;;;;;4960285;28;20043;-60
2022/07/17 06:15:50;;;;;;;8.02;3.60;;;14.70;99.90;;;;;;4976303;28;20382;-60
2022/07/17 06:18:16;;;;;;;6.53;3.30;;;14.70;99.90;;;;;;4960476;28;20548;-60
2022/07/17 06:20:44;;;;;;;6.05;3.10;;;14.70;99.90;;;;;;4993693;28;20062;-59
2022/07/17 06:23:10;;;;;;;8.88;3.08;;;14.80;99.90;;;;;;4976590;28;20193;-59
2022/07/17 06:25:36;;;;;;;9.75;3.60;;;14.80;99.90;;;;;;4993322;28;20525;-59
2022/07/17 06:28:01;;;;;;;12.65;3.67;;;15.00;99.90;;;;;;4993504;28;20137;-59
2022/07/17 06:30:27;;;;;;;8.73;4.47;;;15.40;99.90;;;;;;4975915;28;20129;-60
2022/07/17 06:32:53;;;;;;;9.85;3.60;;;15.60;99.90;;;;;;4975974;28;20054;-61
2022/07/17 06:35:18;;;;;;;6.13;3.30;;;16.30;99.90;;;;;;4993535;28;20050;-60
2022/07/17 06:37:45;;;;;;;7.97;3.30;;;17.50;99.90;;;;;;4993238;28;20093;-60
2022/07/17 06:40:12;;;;;;;9.05;3.10;;;19.70;99.90;;;;;;4995654;28;20153;-60
2022/07/17 06:42:38;;;;;;;6.22;2.80;;;21.30;99.90;;;;;;4997538;28;20108;-60
2022/07/17 06:45:04;;;;;;;9.00;2.78;;;23.10;99.90;;;;;;4996429;28;20490;-60
2022/07/17 06:47:30;;;;;;;10.80;2.90;;;23.70;98.10;;;;;;4997361;28;20469;-61
2022/07/17 06:49:56;;;;;;;7.90;2.60;;;;;;;;;;4997780;28;20045;-61
2022/07/17 06:52:22;;;;;;;10.82;2.53;;;26.10;82.70;;;;;;4996160;28;20050;-61
2022/07/17 06:54:47;;;;;;;7.18;2.22;;;26.20;72.20;;;;;;4997208;28;20042;-61
2022/07/17 06:57:13;;;;;;;7.88;2.67;;;27.60;72.20;;;;;;4997143;28;20243;-61
2022/07/17 06:59:40;;;;;;;5.32;2.15;;;27.80;68.90;;;;;;4979778;28;20104;-61
2022/07/17 07:02:06;;;;;;;10.43;2.35;;;28.20;59.30;;;;;;4996889;28;20061;-61
2022/07/17 07:04:32;;;;;;;6.03;2.20;;;28.90;63.60;;;;;;4997145;28;20061;-61
2022/07/17 07:06:57;;;;;;;7.45;2.30;;;29.10;62.10;;;;;;4997417;28;20046;-62
2022/07/17 07:09:24;;;;;;;6.25;2.00;;;29.20;60.50;;;;;;4996950;28;20061;-62
2022/07/17 07:11:49;;;;;;;7.93;2.00;;;29.30;53.00;;;;;;4997041;28;20073;-62
2022/07/17 07:14:15;;;;;;;8.07;2.17;;;29.40;51.70;;;;;;4979980;28;20125;-62
2022/07/17 07:16:41;;;;;;;6.43;2.17;;;29.70;60.00;;;;;;4994148;28;20038;-62
2022/07/17 07:19:06;;;;;;;7.68;2.10;;;29.50;51.00;;;;;;4979572;28;20055;-59
2022/07/17 07:21:32;;;;;;;5.85;1.98;;;29.20;51.10;;;;;;4997041;28;20050;-59
2022/07/17 07:23:58;;;;;;;7.10;1.80;;;29.20;60.10;;;;;;4996896;28;20101;-59
2022/07/17 07:26:24;;;;;;;6.18;2.00;;;29.00;58.80;;;;;;4996908;28;20047;-59
2022/07/17 07:28:50;;;;;;;6.65;1.95;;;29.00;51.30;;;;;;4979174;28;20053;-59
2022/07/17 07:31:16;;;;;;;6.53;2.00;;;;;;;;;;4996756;28;20100;-59
2022/07/17 07:33:43;;;;;;;6.22;1.90;;;28.70;52.00;;;;;;4996976;28;20050;-60
2022/07/17 07:36:09;;;;;;;6.38;1.85;;;28.10;60.90;;;;;;4996708;28;20065;-59
2022/07/17 07:38:38;;;;;;;5.55;1.90;;;28.30;61.70;;;;;;4996692;28;20121;-60
2022/07/17 07:41:04;;;;;;;6.65;1.98;;;28.50;59.60;;;;;;4979258;28;20387;-56
2022/07/17 07:43:30;;;;;;;8.07;1.90;;;27.80;61.20;;;;;;4995995;28;20062;-57
2022/07/17 07:45:56;;;;;;;5.85;1.63;;;26.40;60.20;;;;;;4993792;28;20133;-58
2022/07/17 07:48:24;;;;;;;4.45;1.60;;;26.90;62.00;;;;;;4984751;28;20061;-57
2022/07/17 07:50:50;;;;;;;5.72;1.85;;;26.80;54.70;;;;;;4981901;28;20126;-57
2022/07/17 07:53:16;;;;;;;7.93;1.98;;;;;;;;;;4985475;28;20188;-57
2022/07/17 07:55:45;;;;;;;7.80;2.10;;;26.70;54.80;;;;;;4987594;28;20043;-57
2022/07/17 07:58:12;;;;;;;4.18;1.40;;;27.00;62.60;;;;;;4970311;28;20543;-56
2022/07/17 08:00:39;;;;;;;4.95;1.70;;;26.90;60.90;;;;;;4984352;28;20050;-57
2022/07/17 08:03:06;;;;;;;7.32;1.90;;;26.40;60.00;;;;;;4994777;28;20057;-57
2022/07/17 08:05:31;;;;;;;6.82;2.00;;;27.00;53.80;;;;;;4995604;28;20058;-57
2022/07/17 08:07:57;;;;;;;7.03;1.70;;;26.80;54.30;;;;;;4977687;28;20158;-57
2022/07/17 08:10:23;;;;;;;6.45;1.90;;;25.40;61.40;;;;;;4954758;28;20062;-57
2022/07/17 08:12:49;;;;;;;6.00;1.88;;;26.30;62.50;;;;;;4994882;28;20495;-58
2022/07/17 08:15:19;;;;;;;6.95;1.85;;;26.20;64.80;;;;;;4994341;28;20086;-57
2022/07/17 08:17:47;;;;;;;5.57;1.52;;;26.10;55.40;;;;;;4995159;28;20052;-57
2022/07/17 08:20:13;;;;;;;7.40;2.13;;;26.40;61.80;;;;;;4977015;28;20061;-57
2022/07/17 08:22:40;;;;;;;6.07;1.88;;;25.30;62.60;;;;;;4994605;28;20501;-57
2022/07/17 08:25:06;;;;;;;4.05;1.65;;;26.40;63.50;;;;;;4976808;28;20054;-57
2022/07/17 08:27:39;;;;;;;5.00;1.80;;;26.70;64.40;;;;;;4993929;28;20053;-57
2022/07/17 08:30:07;;;;;;;6.45;1.85;;;26.60;62.70;;;;;;4990277;28;20046;-57
2022/07/17 08:32:33;;;;;;;7.95;1.80;;;26.70;54.70;;;;;;4975193;28;20509;-57
2022/07/17 08:34:58;;;;;;;10.80;1.80;;;26.70;54.00;;;;;;4974129;28;20042;-58
2022/07/17 08:37:25;;;;;;;7.30;1.80;;;26.30;55.50;;;;;;4975005;28;20051;-57
2022/07/17 08:39:51;;;;;;;4.63;1.50;;;25.70;62.70;;;;;;4975178;28;20113;-58
2022/07/17 08:42:19;;;;;;;6.43;1.58;;;26.00;55.20;;;;;;4982342;28;20426;-58
2022/07/17 08:44:46;;;;;;;6.00;1.80;;;25.40;63.60;;;;;;4993939;28;20054;-57
2022/07/17 08:47:13;;;;;;;6.78;1.88;;;25.60;56.30;;;;;;4995027;28;20409;-58
2022/07/17 08:49:45;;;;;;;5.70;1.80;;;25.00;64.40;;;;;;4995236;28;20051;-58
2022/07/17 08:52:12;;;;;;;6.78;2.08;;;25.00;56.00;;;;;;4995294;28;20078;-58
2022/07/17 08:54:38;;;;;;;6.60;1.73;;;24.80;57.00;;;;;;4995229;28;20592;-58
2022/07/17 08:57:05;;;;;;;6.85;1.70;;;25.00;56.90;;;;;;4995399;28;20374;-56
2022/07/17 08:59:31;;;;;;;4.90;1.60;;;25.80;64.50;;;;;;4995074;28;20121;-56
2022/07/17 09:01:59;;;;;;;6.95;1.80;;;25.50;57.10;;;;;;4996124;28;20393;-56
2022/07/17 09:04:24;;;;;;;8.25;1.90;;;25.40;63.20;;;;;;5014950;28;20111;-56
2022/07/17 09:07:01;;;;;;;6.88;1.63;;;25.60;57.10;;;;;;5013113;28;20095;-56
2022/07/17 09:09:33;;;;;;;6.60;1.70;;;26.00;65.40;;;;;;5014166;28;20056;-56
2022/07/17 09:12:01;;;;;;;6.80;1.52;;;26.30;63.30;;;;;;5014205;28;20411;-57
2022/07/17 09:14:41;;;;;;;6.85;1.67;;;25.80;57.30;;;;;;5013990;28;20085;-57
2022/07/17 09:17:10;;;;;;;5.55;1.73;;;25.60;57.10;;;;;;5014277;28;20088;-57
2022/07/17 09:19:45;;;;;;;6.65;1.90;;;25.40;56.50;;;;;;4967709;28;20472;-57
2022/07/17 09:22:12;;;;;;;8.30;1.70;;;24.60;61.90;;;;;;4989476;28;20491;-57
2022/07/17 09:24:43;;;;;;;3.67;1.55;;;25.20;56.90;;;;;;4975196;28;20399;-57
2022/07/17 09:27:09;;;;;;;4.57;1.60;;;25.00;55.70;;;;;;4974960;28;20090;-57
2022/07/17 09:29:49;;;;;;;4.78;1.55;;;24.20;56.10;;;;;;4975049;28;20051;-57
2022/07/17 09:32:19;;;;;;;8.15;1.85;;;24.10;64.80;;;;;;4975260;28;20122;-57
2022/07/17 09:34:58;;;;;;;5.97;1.60;;;23.40;65.00;;;;;;4976568;28;20050;-57
2022/07/17 09:37:25;;;;;;;5.00;1.52;;;23.30;57.70;;;;;;4976762;28;20390;-57
2022/07/17 09:39:53;;;;;;;4.30;1.55;;;22.90;66.50;;;;;;4994100;28;20568;-57
2022/07/17 09:42:32;;;;;;;4.07;1.48;;;22.80;67.10;;;;;;4976988;28;20402;-57
2022/07/17 09:45:05;;;;;;;4.90;1.80;;;22.80;59.00;;;;;;4969048;28;20478;-57
2022/07/17 09:47:36;;;;;;;6.60;1.77;;;22.90;57.70;;;;;;4964784;28;20136;-57
2022/07/17 09:50:05;;;;;;;5.50;1.70;;;22.80;58.10;;;;;;4992436;28;20502;-57
2022/07/17 09:52:33;;;;;;;3.70;1.42;;;22.90;58.20;;;;;;4993998;28;20506;-57
2022/07/17 09:55:01;;;;;;;5.95;1.70;;;23.70;66.10;;;;;;4994333;28;20490;-57
2022/07/17 09:57:32;;;;;;;5.70;1.60;;;23.30;57.80;;;;;;5000334;28;20474;-57
2022/07/17 10:00:12;;;;;;;4.45;1.52;;;23.50;57.80;;;;;;4994667;28;20065;-57
2022/07/17 10:02:44;;;;;;;7.03;1.80;;;23.70;57.10;;;;;;5004409;28;20133;-57
2022/07/17 10:05:15;;;;;;;5.15;1.70;;;23.80;57.10;;;;;;4994146;28;20056;-57
2022/07/17 10:07:45;;;;;;;4.10;1.63;;;23.80;57.00;;;;;;4993980;28;20129;-57
2022/07/17 10:10:12;;;;;;;5.65;1.70;;;23.60;66.00;;;;;;4994049;28;20458;-58
2022/07/17 10:12:40;;;;;;;8.48;1.60;;;23.40;57.20;;;;;;4993820;28;20050;-58
2022/07/17 10:15:07;;;;;;;4.32;1.80;;;24.20;68.10;;;;;;4991716;28;20047;-57
2022/07/17 10:17:33;;;;;;;8.65;2.00;;;23.30;58.40;;;;;;4976879;28;20042;-58
2022/07/17 10:19:59;;;;;;;5.65;1.70;;;23.60;66.30;;;;;;4993743;28;20128;-58
2022/07/17 10:22:25;;;;;;;6.72;1.67;;;23.80;58.30;;;;;;4992859;28;20137;-59
2022/07/17 10:24:55;;;;;;;3.38;1.50;;;24.00;58.70;;;;;;4992402;28;20046;-59
2022/07/17 10:27:22;;;;;;;5.22;1.80;;;24.00;57.20;;;;;;4991983;28;20101;-58
2022/07/17 10:30:06;;;;;;;8.00;1.67;;;23.00;65.20;;;;;;4992242;28;20113;-58
2022/07/17 10:32:33;;;;;;;6.88;1.60;;;23.70;58.30;;;;;;4993777;28;20042;-58
2022/07/17 10:35:02;;;;;;;6.05;1.80;;;23.80;58.40;;;;;;4993362;28;20502;-59
2022/07/17 10:37:38;;;;;;;5.28;1.63;;;23.90;58.30;;;;;;4993515;28;20116;-59
2022/07/17 10:40:10;;;;;;;5.57;1.60;;;24.00;58.00;;;;;;4993506;28;20050;-59
2022/07/17 10:42:57;;;;;;;7.53;1.83;;;24.00;58.50;;;;;;4993273;28;20050;-59
2022/07/17 10:45:25;;;;;;;5.95;1.65;;;24.40;65.90;;;;;;4993092;28;20042;-58
2022/07/17 10:48:01;;;;;;;6.07;1.90;;;24.30;58.30;;;;;;4981847;28;20035;-58
2022/07/17 10:50:38;;;;;;;4.80;1.75;;;24.60;64.80;;;;;;4985233;28;20043;-58
2022/07/17 10:53:11;;;;;;;5.07;1.60;;;24.50;56.60;;;;;;4984293;28;20461;-58
2022/07/17 10:55:43;;;;;;;4.05;1.50;;;24.70;56.00;;;;;;4968245;28;20108;-58
2022/07/17 10:58:32;;;;;;;9.27;1.60;;;24.70;56.30;;;;;;4990774;28;20489;-59
2022/07/17 11:01:17;;;;;;;5.65;1.60;;;24.60;63.20;;;;;;4974489;28;20047;-58
2022/07/17 11:03:45;;;;;;;6.30;1.50;;;24.80;55.10;;;;;;4974102;28;20098;-58
2022/07/17 11:06:11;;;;;;;5.28;1.75;;;24.90;55.30;;;;;;4974453;28;20051;-58
2022/07/17 11:09:16;;;;;;;5.03;1.50;;;24.80;55.30;;;;;;4974010;28;20051;-59
2022/07/17 11:11:50;;;;;;;6.88;1.83;;;24.80;54.60;;;;;;5012085;28;20054;-59
2022/07/17 11:14:24;;;;;;;6.03;1.50;;;24.90;55.50;;;;;;5013049;28;20493;-59
2022/07/17 11:16:55;;;;;;;6.15;1.50;;;25.00;56.80;;;;;;5013231;28;20046;-58
2022/07/17 11:19:21;;;;;;;3.72;1.52;;;25.00;55.80;;;;;;5012099;28;20096;-58
2022/07/17 11:22:00;;;;;;;4.32;1.45;;;25.10;55.40;;;;;;5004926;28;20133;-61
2022/07/17 11:24:47;;;;;;;6.30;1.77;;;25.10;55.50;;;;;;4957719;28;20054;-59
2022/07/17 11:27:23;;;;;;;7.72;1.98;;;25.20;55.50;;;;;;4976373;28;20066;-59
2022/07/17 11:29:51;;;;;;;5.28;1.80;;;25.10;63.30;;;;;;4991761;28;20121;-60
2022/07/17 11:32:17;;;;;;;3.90;1.50;;;25.00;55.80;;;;;;4997018;28;20050;-58
2022/07/17 11:34:43;;;;;;;6.38;1.60;;;25.00;63.00;;;;;;4996955;28;20046;-57
2022/07/17 11:37:09;;;;;;;5.35;1.65;;;25.20;57.10;;;;;;4997207;28;20197;-59
2022/07/17 11:39:53;;;;;;;4.15;1.60;;;25.30;56.50;;;;;;4979244;28;20043;-60
2022/07/17 11:42:22;;;;;;;3.33;1.75;;;25.40;54.20;;;;;;4977200;28;20410;-59
2022/07/17 11:44:54;;;;;;;4.28;1.80;;;25.40;54.50;;;;;;4977119;28;20125;-60
2022/07/17 11:47:22;;;;;;;4.68;1.50;;;25.30;54.40;;;;;;4976580;28;20057;-60
2022/07/17 11:49:48;;;;;;;3.60;1.63;;;25.30;55.70;;;;;;4959727;28;20055;-60
2022/07/17 11:52:17;;;;;;;7.65;1.80;;;25.60;65.10;;;;;;4977132;28;20060;-60
2022/07/17 11:54:55;;;;;;;5.07;1.65;;;25.40;55.50;;;;;;4959768;28;20038;-59
2022/07/17 11:57:21;;;;;;;5.28;1.63;;;25.50;55.70;;;;;;4976884;28;20371;-58
2022/07/17 11:59:48;;;;;;;4.03;1.77;;;25.80;63.70;;;;;;4959501;28;20058;-60
2022/07/17 12:02:21;;;;;;;4.47;1.77;;;25.70;55.90;;;;;;4976625;28;20059;-60
2022/07/17 12:04:56;;;;;;;3.63;1.73;;;25.80;55.90;;;;;;4959613;28;20046;-59
2022/07/17 12:07:22;;;;;;;4.93;1.60;;;25.80;54.30;;;;;;4976713;28;20089;-59
2022/07/17 12:09:48;;;;;;;7.88;1.70;;;25.80;54.90;;;;;;4976627;28;20386;-60
2022/07/17 12:12:22;;;;;;;3.60;1.95;;;25.80;54.50;;;;;;4976498;28;20046;-58
2022/07/17 12:14:59;;;;;;;3.70;1.50;;;25.80;55.60;;;;;;4984561;28;20101;-58
2022/07/17 12:17:40;;;;;;;4.53;1.70;;;25.90;54.30;;;;;;4996707;28;20125;-58
2022/07/17 12:20:09;;;;;;;4.05;1.70;;;25.80;54.50;;;;;;4995932;28;20125;-59
2022/07/17 12:22:48;;;;;;;7.40;1.70;;;25.90;55.10;;;;;;4989630;28;20081;-60
2022/07/17 12:25:27;;;;;;;3.78;1.70;;;26.10;54.60;;;;;;5014766;28;20046;-59
2022/07/17 12:27:54;;;;;;;2.80;1.60;;;26.30;54.10;;;;;;5013665;28;20504;-59
2022/07/17 12:30:20;;;;;;;4.63;1.80;;;26.40;54.20;;;;;;5014969;28;20052;-59
2022/07/17 12:32:49;;;;;;;5.10;1.92;;;26.50;54.20;;;;;;4998630;28;20077;-59
2022/07/17 12:35:15;;;;;;;6.35;1.90;;;26.60;53.30;;;;;;4994875;28;20051;-59
2022/07/17 12:37:46;;;;;;;5.82;1.77;;;26.60;52.60;;;;;;4995251;28;20054;-60
2022/07/17 12:40:12;;;;;;;4.43;1.70;;;26.50;52.30;;;;;;4977568;28;20038;-59
2022/07/17 12:42:41;;;;;;;4.60;1.60;;;26.30;52.80;;;;;;4994581;28;20056;-60
2022/07/17 12:45:07;;;;;;;6.22;2.10;;;26.60;59.60;;;;;;4995266;28;20134;-60
2022/07/17 12:47:33;;;;;;;4.00;1.83;;;26.70;53.40;;;;;;4995683;28;20042;-59
2022/07/17 12:50:02;;;;;;;4.95;2.10;;;26.90;52.30;;;;;;4994961;28;20054;-60
2022/07/17 12:52:28;;;;;;;5.25;2.40;;;27.00;52.60;;;;;;5008233;28;20042;-60
2022/07/17 12:54:53;;;;;;;5.35;2.22;;;27.10;51.90;;;;;;5014879;28;20045;-60
2022/07/17 12:57:19;;;;;;;4.57;1.88;;;27.30;53.30;;;;;;5014828;28;20165;-60
2022/07/17 12:59:45;;;;;;;4.00;2.10;;;27.30;52.60;;;;;;5014390;28;20405;-60
2022/07/17 13:02:11;;;;;;;4.68;2.30;;;27.50;52.60;;;;;;5012463;28;20050;-60
2022/07/17 13:04:37;;;;;;;6.28;2.20;;;27.60;52.10;;;;;;5014341;28;20057;-60